Time;durP1;ratioP1;P1;durP2;ratioP2;P2;SDS_P1;SDS_P2;PMS_P1;PMS_P2;Temp;Humidity;BMP_temperature;BMP_pressure;BME280_temperature;BME280_humidity;BME280_pressure;Samples;Min_cycle;Max_cycle;Signal;HPM_P1;HPM_P2
2023/01/07 00:00:01;;;;;;;0.00;0.00;;;;;;;;;;5031654;28;20235;-82
2023/01/07 00:02:29;;;;;;;0.00;0.00;;;;;;;;;;5017179;28;20235;-81
2023/01/07 00:04:58;;;;;;;0.00;0.00;;;;;;;;;;5035049;28;20204;-81
2023/01/07 00:07:26;;;;;;;0.00;0.00;;;;;;;;;;5031416;28;20220;-80
2023/01/07 00:09:55;;;;;;;0.00;0.00;;;;;;;;;;5025246;28;20225;-81
2023/01/07 00:12:23;;;;;;;0.00;0.00;;;;;;;;;;5034839;28;20607;-81
2023/01/07 00:14:53;;;;;;;0.00;0.00;;;;;;;;;;5035523;28;20584;-81
2023/01/07 00:17:21;;;;;;;0.00;0.00;;;;;;;;;;5034051;28;20803;-82
2023/01/07 00:19:50;;;;;;;0.00;0.00;;;;;;;;;;5031180;28;20246;-81
2023/01/07 00:22:18;;;;;;;0.00;0.00;;;;;;;;;;5033877;28;20230;-82
2023/01/07 00:24:47;;;;;;;0.00;0.00;;;;;;;;;;5034063;28;20253;-82
2023/01/07 00:27:15;;;;;;;0.00;0.00;;;;;;;;;;5035037;28;20738;-82
2023/01/07 00:29:44;;;;;;;0.00;0.00;;;;;;;;;;5026670;28;20208;-82
2023/01/07 00:32:14;;;;;;;0.00;0.00;;;;;;;;;;5016698;28;20910;-82
2023/01/07 00:34:42;;;;;;;0.00;0.00;;;;;;;;;;5034502;28;20261;-81
2023/01/07 00:39:57;;;;;;;0.00;0.00;;;;;;;;;;5035864;28;20188;-82
2023/01/07 00:45:12;;;;;;;0.00;0.00;;;;;;;;;;5016718;28;20235;-82
2023/01/07 00:47:42;;;;;;;0.00;0.00;;;;;;;;;;5033262;28;20230;-81
2023/01/07 00:50:10;;;;;;;0.00;0.00;;;;;;;;;;5027026;28;20221;-82
2023/01/07 00:52:39;;;;;;;0.00;0.00;;;;;;;;;;5018581;28;20208;-82
2023/01/07 00:55:09;;;;;;;0.00;0.00;;;;;;;;;;5036355;28;20208;-82
2023/01/07 00:57:38;;;;;;;0.00;0.00;;;;;;;;;;5024655;28;20247;-81
2023/01/07 01:00:07;;;;;;;0.00;0.00;;;;;;;;;;5029522;28;20200;-82
2023/01/07 01:02:35;;;;;;;0.00;0.00;;;;;;;;;;5018291;28;20216;-81
2023/01/07 01:05:06;;;;;;;0.00;0.00;;;;;;;;;;5038262;28;20235;-81
2023/01/07 01:07:35;;;;;;;0.00;0.00;;;;;;;;;;5022895;28;20234;-81
2023/01/07 01:10:04;;;;;;;0.00;0.00;;;;;;;;;;5036334;28;20212;-82
2023/01/07 01:12:34;;;;;;;0.00;0.00;;;;;;;;;;5040902;28;20291;-82
2023/01/07 01:15:02;;;;;;;0.00;0.00;;;;;;;;;;5037038;28;20594;-82
2023/01/07 01:17:31;;;;;;;0.00;0.00;;;;;;;;;;5032218;28;20266;-82
2023/01/07 01:20:00;;;;;;;0.00;0.00;;;;;;;;;;5040391;28;20204;-82
2023/01/07 01:22:29;;;;;;;0.00;0.00;;;;;;;;;;5035007;28;20208;-81
2023/01/07 01:24:58;;;;;;;0.00;0.00;;;;;;;;;;5022092;28;20220;-81
2023/01/07 01:27:26;;;;;;;0.00;0.00;;;;;;;;;;5049142;28;20721;-82
2023/01/07 01:29:55;;;;;;;0.00;0.00;;;;;;;;;;5040561;28;20200;-82
2023/01/07 01:32:23;;;;;;;0.00;0.00;;;;;;;;;;5039221;28;20290;-82
2023/01/07 01:34:52;;;;;;;0.00;0.00;;;;;;;;;;5029840;28;20210;-82
2023/01/07 01:37:20;;;;;;;0.00;0.00;;;;;;;;;;5042159;28;20227;-82
2023/01/07 01:39:53;;;;;;;0.00;0.00;;;;;;;;;;5040890;28;20200;-82
2023/01/07 01:42:23;;;;;;;0.00;0.00;;;;;;;;;;5036942;28;20204;-82
2023/01/07 01:44:53;;;;;;;0.00;0.00;;;;;;;;;;5033766;28;20661;-82
2023/01/07 01:47:26;;;;;;;0.00;0.00;;;;;;;;;;5021216;28;20221;-82
2023/01/07 01:49:57;;;;;;;0.00;0.00;;;;;;;;;;5039255;28;20206;-82
2023/01/07 01:52:30;;;;;;;0.00;0.00;;;;;;;;;;5040035;28;20219;-82
2023/01/07 01:55:01;;;;;;;0.00;0.00;;;;;;;;;;5037863;28;20204;-82
2023/01/07 01:57:31;;;;;;;0.00;0.00;;;;;;;;;;5032137;28;20589;-82
2023/01/07 02:00:03;;;;;;;0.00;0.00;;;;;;;;;;5040292;28;20204;-82
2023/01/07 02:02:34;;;;;;;0.00;0.00;;;;;;;;;;5037203;28;20211;-82
2023/01/07 02:05:03;;;;;;;0.00;0.00;;;;;;;;;;5040084;28;20206;-82
2023/01/07 02:07:32;;;;;;;0.00;0.00;;;;;;;;;;5042137;28;20231;-82
2023/01/07 02:10:02;;;;;;;0.00;0.00;;;;;;;;;;5025803;28;20204;-83
2023/01/07 02:12:42;;;;;;;0.00;0.00;;;;;;;;;;5041787;28;20257;-83
2023/01/07 02:15:12;;;;;;;0.00;0.00;;;;;;;;;;5041669;28;20203;-82
2023/01/07 02:17:47;;;;;;;0.00;0.00;;;;;;;;;;5037650;28;20220;-82
2023/01/07 02:20:26;;;;;;;0.00;0.00;;;;;;;;;;5039363;28;20622;-82
2023/01/07 02:23:13;;;;;;;0.00;0.00;;;;;;;;;;5038799;28;20218;-82
2023/01/07 02:26:11;;;;;;;0.00;0.00;;;;;;;;;;5038389;28;20234;-82
2023/01/07 02:29:01;;;;;;;0.00;0.00;;;;;;;;;;5016449;28;20263;-82
2023/01/07 02:31:38;;;;;;;0.00;0.00;;;;;;;;;;5024359;28;20228;-82
2023/01/07 02:34:11;;;;;;;0.00;0.00;;;;;;;;;;5028786;28;20664;-82
2023/01/07 02:36:47;;;;;;;0.00;0.00;;;;;;;;;;5019856;28;20267;-82
2023/01/07 02:39:22;;;;;;;0.00;0.00;;;;;;;;;;5028614;28;20623;-82
2023/01/07 02:41:53;;;;;;;0.00;0.00;;;;;;;;;;5028503;28;20241;-82
2023/01/07 02:44:26;;;;;;;0.00;0.00;;;;;;;;;;5038864;28;20261;-82
2023/01/07 02:46:57;;;;;;;0.00;0.00;;;;;;;;;;5038803;28;20232;-82
2023/01/07 02:49:27;;;;;;;0.00;0.00;;;;;;;;;;5039026;28;20612;-82
2023/01/07 02:51:56;;;;;;;0.00;0.00;;;;;;;;;;5026035;28;20236;-82
2023/01/07 02:54:27;;;;;;;0.00;0.00;;;;;;;;;;5037827;28;20215;-82
2023/01/07 02:57:03;;;;;;;0.00;0.00;;;;;;;;;;5034320;28;20225;-82
2023/01/07 02:59:55;;;;;;;0.00;0.00;;;;;;;;;;5018196;28;20212;-82
2023/01/07 03:02:41;;;;;;;0.00;0.00;;;;;;;;;;5027551;28;20200;-82
2023/01/07 03:05:20;;;;;;;0.00;0.00;;;;;;;;;;5037363;28;20553;-82
2023/01/07 03:07:55;;;;;;;0.00;0.00;;;;;;;;;;5039992;28;20219;-81
2023/01/07 03:10:27;;;;;;;0.00;0.00;;;;;;;;;;5044720;28;20315;-82
2023/01/07 03:12:57;;;;;;;0.00;0.00;;;;;;;;;;5041243;28;20211;-81
2023/01/07 03:15:28;;;;;;;0.00;0.00;;;;;;;;;;5022702;28;20209;-81
2023/01/07 03:18:02;;;;;;;0.00;0.00;;;;;;;;;;5024829;28;20279;-82
2023/01/07 03:20:34;;;;;;;0.00;0.00;;;;;;;;;;5039475;28;20211;-82
2023/01/07 03:23:05;;;;;;;0.00;0.00;;;;;;;;;;5033411;28;20645;-83
2023/01/07 03:25:35;;;;;;;0.00;0.00;;;;;;;;;;5040550;28;20250;-81
2023/01/07 03:28:05;;;;;;;0.00;0.00;;;;;;;;;;5041739;28;20223;-82
2023/01/07 03:30:34;;;;;;;0.00;0.00;;;;;;;;;;5035339;28;20254;-81
2023/01/07 03:33:05;;;;;;;0.00;0.00;;;;;;;;;;5030857;28;20258;-82
2023/01/07 03:35:35;;;;;;;0.00;0.00;;;;;;;;;;5040623;28;20200;-81
2023/01/07 03:38:05;;;;;;;0.00;0.00;;;;;;;;;;5021188;28;20259;-81
2023/01/07 03:40:33;;;;;;;0.00;0.00;;;;;;;;;;5029291;28;20288;-82
2023/01/07 03:43:00;;;;;;;0.00;0.00;;;;;;;;;;5023745;28;20685;-81
2023/01/07 03:45:29;;;;;;;0.00;0.00;;;;;;;;;;5044872;28;20205;-81
2023/01/07 03:47:58;;;;;;;0.00;0.00;;;;;;;;;;5030143;28;20224;-81
2023/01/07 03:50:26;;;;;;;0.00;0.00;;;;;;;;;;5035344;28;20204;-81
2023/01/07 03:52:56;;;;;;;0.00;0.00;;;;;;;;;;5034779;28;20223;-81
2023/01/07 03:55:25;;;;;;;0.00;0.00;;;;;;;;;;5030519;28;20212;-80
2023/01/07 03:57:53;;;;;;;0.00;0.00;;;;;;;;;;5033186;28;20220;-81
2023/01/07 04:00:21;;;;;;;0.00;0.00;;;;;;;;;;5034173;28;20619;-81
2023/01/07 04:02:50;;;;;;;0.00;0.00;;;;;;;;;;5034138;28;20241;-81
2023/01/07 04:05:19;;;;;;;0.00;0.00;;;;;;;;;;5031539;28;20215;-81
2023/01/07 04:07:47;;;;;;;0.00;0.00;;;;;;;;;;5042651;28;20249;-80
2023/01/07 04:10:17;;;;;;;0.00;0.00;;;;;;;;;;5031035;28;20243;-81
2023/01/07 04:12:45;;;;;;;0.00;0.00;;;;;;;;;;5031702;28;20252;-80
2023/01/07 04:15:14;;;;;;;0.00;0.00;;;;;;;;;;5022441;28;20236;-80
2023/01/07 04:17:42;;;;;;;0.00;0.00;;;;;;;;;;5023764;28;20223;-81
2023/01/07 04:20:11;;;;;;;0.00;0.00;;;;;;;;;;5034673;28;20228;-80
2023/01/07 04:22:39;;;;;;;0.00;0.00;;;;;;;;;;5034050;28;20580;-81
2023/01/07 04:25:08;;;;;;;0.00;0.00;;;;;;;;;;5034326;28;20228;-80
2023/01/07 04:27:38;;;;;;;0.00;0.00;;;;;;;;;;5034837;28;20238;-81
2023/01/07 04:30:06;;;;;;;0.00;0.00;;;;;;;;;;5034310;28;20215;-81
2023/01/07 04:32:35;;;;;;;0.00;0.00;;;;;;;;;;5034348;28;20219;-81
2023/01/07 04:35:04;;;;;;;0.00;0.00;;;;;;;;;;5033814;28;20207;-80
2023/01/07 04:37:32;;;;;;;0.00;0.00;;;;;;;;;;5034142;28;20262;-81
2023/01/07 04:40:01;;;;;;;0.00;0.00;;;;;;;;;;5026858;28;20200;-80
2023/01/07 04:42:29;;;;;;;0.00;0.00;;;;;;;;;;5033728;28;20254;-80
2023/01/07 04:44:59;;;;;;;0.00;0.00;;;;;;;;;;5025101;28;20257;-80
2023/01/07 04:47:27;;;;;;;0.00;0.00;;;;;;;;;;5031556;28;20662;-80
2023/01/07 04:49:55;;;;;;;0.00;0.00;;;;;;;;;;5032414;28;20254;-80
2023/01/07 04:52:25;;;;;;;0.00;0.00;;;;;;;;;;5027352;28;20639;-80
2023/01/07 04:54:53;;;;;;;0.00;0.00;;;;;;;;;;5024006;28;20242;-80
2023/01/07 04:57:21;;;;;;;0.00;0.00;;;;;;;;;;5032274;28;20228;-80
2023/01/07 04:59:50;;;;;;;0.00;0.00;;;;;;;;;;5023796;28;20236;-80
2023/01/07 05:02:20;;;;;;;0.00;0.00;;;;;;;;;;5019628;28;20196;-80
2023/01/07 05:04:48;;;;;;;0.00;0.00;;;;;;;;;;5028846;28;20580;-80
2023/01/07 05:07:17;;;;;;;0.00;0.00;;;;;;;;;;5028289;28;20231;-80
2023/01/07 05:09:45;;;;;;;0.00;0.00;;;;;;;;;;5033958;28;20203;-80
2023/01/07 05:12:14;;;;;;;0.00;0.00;;;;;;;;;;5025194;28;20196;-80
2023/01/07 05:14:42;;;;;;;0.00;0.00;;;;;;;;;;5033386;28;20254;-80
2023/01/07 05:17:11;;;;;;;0.00;0.00;;;;;;;;;;5035283;28;20259;-80
2023/01/07 05:19:40;;;;;;;0.00;0.00;;;;;;;;;;5032449;28;20211;-79
2023/01/07 05:22:09;;;;;;;0.00;0.00;;;;;;;;;;5030209;28;20257;-79
2023/01/07 05:24:37;;;;;;;0.00;0.00;;;;;;;;;;5024151;28;20236;-79
2023/01/07 05:27:05;;;;;;;0.00;0.00;;;;;;;;;;5016585;28;20699;-80
2023/01/07 05:29:34;;;;;;;0.00;0.00;;;;;;;;;;5022448;28;20231;-81
2023/01/07 05:32:02;;;;;;;0.00;0.00;;;;;;;;;;5033155;28;20993;-79
2023/01/07 05:34:31;;;;;;;0.00;0.00;;;;;;;;;;5032854;28;20731;-80
2023/01/07 05:37:00;;;;;;;0.00;0.00;;;;;;;;;;5032806;28;20224;-80
2023/01/07 05:39:29;;;;;;;0.00;0.00;;;;;;;;;;5033090;28;20208;-80
2023/01/07 05:41:57;;;;;;;0.00;0.00;;;;;;;;;;5032948;28;20649;-80
2023/01/07 05:44:26;;;;;;;0.00;0.00;;;;;;;;;;5033218;28;20211;-79
2023/01/07 05:46:54;;;;;;;0.00;0.00;;;;;;;;;;5032558;28;20226;-80
2023/01/07 05:49:23;;;;;;;0.00;0.00;;;;;;;;;;5033051;28;20204;-80
2023/01/07 05:51:51;;;;;;;0.00;0.00;;;;;;;;;;5031873;28;20224;-80
2023/01/07 05:54:21;;;;;;;0.00;0.00;;;;;;;;;;5022224;28;20220;-80
2023/01/07 05:56:49;;;;;;;0.00;0.00;;;;;;;;;;5028155;28;20248;-80
2023/01/07 05:59:17;;;;;;;0.00;0.00;;;;;;;;;;5015963;28;20243;-80
2023/01/07 06:01:46;;;;;;;0.00;0.00;;;;;;;;;;5032183;28;20641;-79
2023/01/07 06:04:14;;;;;;;0.00;0.00;;;;;;;;;;5024247;28;20246;-79
2023/01/07 06:06:43;;;;;;;0.00;0.00;;;;;;;;;;5030146;28;20769;-80
2023/01/07 06:09:11;;;;;;;0.00;0.00;;;;;;;;;;5023640;28;20758;-79
2023/01/07 06:11:41;;;;;;;0.00;0.00;;;;;;;;;;5032134;28;20207;-80
2023/01/07 06:14:10;;;;;;;0.00;0.00;;;;;;;;;;5019729;28;20358;-80
2023/01/07 06:16:38;;;;;;;0.00;0.00;;;;;;;;;;5031839;28;20274;-79
2023/01/07 06:19:06;;;;;;;0.00;0.00;;;;;;;;;;5021832;28;20207;-79
2023/01/07 06:21:35;;;;;;;0.00;0.00;;;;;;;;;;5029856;28;20614;-79
2023/01/07 06:24:03;;;;;;;0.00;0.00;;;;;;;;;;5023126;28;20204;-80
2023/01/07 06:26:32;;;;;;;0.00;0.00;;;;;;;;;;5028659;28;20259;-79
2023/01/07 06:29:01;;;;;;;0.00;0.00;;;;;;;;;;5030244;28;20613;-79
2023/01/07 06:31:30;;;;;;;0.00;0.00;;;;;;;;;;5019424;28;20258;-80
2023/01/07 06:33:58;;;;;;;0.00;0.00;;;;;;;;;;5027510;28;20219;-80
2023/01/07 06:36:27;;;;;;;0.00;0.00;;;;;;;;;;5032299;28;20278;-81
2023/01/07 06:38:55;;;;;;;0.00;0.00;;;;;;;;;;5030569;28;20226;-79
2023/01/07 06:41:24;;;;;;;0.00;0.00;;;;;;;;;;5034766;28;20611;-80
2023/01/07 06:43:52;;;;;;;0.00;0.00;;;;;;;;;;5036218;28;20243;-81
2023/01/07 06:46:22;;;;;;;0.00;0.00;;;;;;;;;;5036128;28;20218;-80
2023/01/07 06:48:51;;;;;;;0.00;0.00;;;;;;;;;;5035956;28;20204;-80
2023/01/07 06:51:19;;;;;;;0.00;0.00;;;;;;;;;;5036206;28;20289;-79
2023/01/07 06:53:47;;;;;;;0.00;0.00;;;;;;;;;;5027906;28;20315;-80
2023/01/07 06:56:16;;;;;;;0.00;0.00;;;;;;;;;;5030756;28;20204;-79
2023/01/07 06:58:44;;;;;;;0.00;0.00;;;;;;;;;;5018413;28;20259;-79
2023/01/07 07:01:13;;;;;;;0.00;0.00;;;;;;;;;;5022942;28;20200;-78
2023/01/07 07:03:43;;;;;;;0.00;0.00;;;;;;;;;;5029355;28;20226;-78
2023/01/07 07:06:11;;;;;;;0.00;0.00;;;;;;;;;;5047187;28;20249;-79
2023/01/07 07:08:40;;;;;;;0.00;0.00;;;;;;;;;;5040468;28;20227;-79
2023/01/07 07:11:08;;;;;;;0.00;0.00;;;;;;;;;;5036224;28;20715;-79
2023/01/07 07:13:36;;;;;;;0.00;0.00;;;;;;;;;;5034642;28;20220;-80
2023/01/07 07:16:05;;;;;;;0.00;0.00;;;;;;;;;;5025426;28;20243;-79
2023/01/07 07:18:34;;;;;;;0.00;0.00;;;;;;;;;;5031641;28;20210;-79
2023/01/07 07:21:04;;;;;;;0.00;0.00;;;;;;;;;;5029161;28;20243;-79
2023/01/07 07:23:33;;;;;;;0.00;0.00;;;;;;;;;;5032654;28;20271;-80
2023/01/07 07:26:02;;;;;;;0.00;0.00;;;;;;;;;;5026530;28;20231;-79
2023/01/07 07:28:30;;;;;;;0.00;0.00;;;;;;;;;;5036852;28;20239;-79
2023/01/07 07:30:58;;;;;;;0.00;0.00;;;;;;;;;;5022664;28;20262;-79
2023/01/07 07:33:27;;;;;;;0.00;0.00;;;;;;;;;;5022059;28;20208;-78
2023/01/07 07:35:56;;;;;;;0.00;0.00;;;;;;;;;;5035111;28;20653;-79
2023/01/07 07:38:26;;;;;;;0.00;0.00;;;;;;;;;;5023864;28;20227;-79
2023/01/07 07:40:55;;;;;;;0.00;0.00;;;;;;;;;;5041221;28;20616;-79
2023/01/07 07:43:24;;;;;;;0.00;0.00;;;;;;;;;;5035151;28;20258;-79
2023/01/07 07:45:52;;;;;;;0.00;0.00;;;;;;;;;;5018691;28;20204;-79
2023/01/07 07:48:20;;;;;;;0.00;0.00;;;;;;;;;;5030800;28;20236;-79
2023/01/07 07:50:51;;;;;;;0.00;0.00;;;;;;;;;;5051411;28;20203;-79
2023/01/07 07:53:19;;;;;;;0.00;0.00;;;;;;;;;;5015640;28;20235;-79
2023/01/07 07:55:49;;;;;;;0.00;0.00;;;;;;;;;;5033340;28;20220;-79
2023/01/07 07:58:18;;;;;;;0.00;0.00;;;;;;;;;;5049405;28;20670;-79
2023/01/07 08:00:46;;;;;;;0.00;0.00;;;;;;;;;;5025310;28;20227;-79
2023/01/07 08:03:15;;;;;;;0.00;0.00;;;;;;;;;;5033649;28;20207;-81
2023/01/07 08:05:44;;;;;;;0.00;0.00;;;;;;;;;;5034542;28;20209;-80
2023/01/07 08:08:14;;;;;;;0.00;0.00;;;;;;;;;;5034998;28;20223;-80
2023/01/07 08:10:42;;;;;;;0.00;0.00;;;;;;;;;;5034074;28;20204;-80
2023/01/07 08:13:13;;;;;;;0.00;0.00;;;;;;;;;;5034242;28;20231;-80
2023/01/07 08:15:41;;;;;;;0.00;0.00;;;;;;;;;;5034752;28;20258;-80
2023/01/07 08:18:10;;;;;;;0.00;0.00;;;;;;;;;;5033241;28;20285;-80
2023/01/07 08:20:39;;;;;;;0.00;0.00;;;;;;;;;;5020494;28;20238;-80
2023/01/07 08:23:08;;;;;;;0.00;0.00;;;;;;;;;;5034318;28;20243;-79
2023/01/07 08:25:37;;;;;;;0.00;0.00;;;;;;;;;;5020074;28;20731;-80
2023/01/07 08:28:06;;;;;;;0.00;0.00;;;;;;;;;;5030792;28;20641;-80
2023/01/07 08:30:35;;;;;;;0.00;0.00;;;;;;;;;;5032495;28;20204;-81
2023/01/07 08:33:05;;;;;;;0.00;0.00;;;;;;;;;;5014926;28;20208;-80
2023/01/07 08:35:33;;;;;;;0.00;0.00;;;;;;;;;;5044141;28;20269;-79
2023/01/07 08:38:02;;;;;;;0.00;0.00;;;;;;;;;;5018598;28;20224;-79
2023/01/07 08:40:31;;;;;;;0.00;0.00;;;;;;;;;;5034974;28;20266;-78
2023/01/07 08:43:00;;;;;;;0.00;0.00;;;;;;;;;;5015110;28;20200;-78
2023/01/07 08:45:28;;;;;;;0.00;0.00;;;;;;;;;;5020798;28;20620;-80
2023/01/07 08:47:59;;;;;;;0.00;0.00;;;;;;;;;;5031298;28;20315;-78
2023/01/07 08:50:28;;;;;;;0.00;0.00;;;;;;;;;;5026269;28;20208;-81
2023/01/07 08:52:56;;;;;;;0.00;0.00;;;;;;;;;;5025343;28;20200;-79
2023/01/07 08:55:25;;;;;;;0.00;0.00;;;;;;;;;;5028825;28;20259;-78
2023/01/07 08:57:53;;;;;;;0.00;0.00;;;;;;;;;;5014664;28;20294;-79
2023/01/07 09:00:22;;;;;;;0.00;0.00;;;;;;;;;;5026478;28;20208;-78
2023/01/07 09:02:50;;;;;;;0.00;0.00;;;;;;;;;;5029439;28;20425;-78
2023/01/07 09:05:20;;;;;;;0.00;0.00;;;;;;;;;;5026697;28;20195;-78
2023/01/07 09:07:52;;;;;;;0.00;0.00;;;;;;;;;;5021353;28;20256;-78
2023/01/07 09:10:20;;;;;;;0.00;0.00;;;;;;;;;;5033030;28;20303;-79
2023/01/07 09:12:49;;;;;;;0.00;0.00;;;;;;;;;;5019479;28;20205;-78
2023/01/07 09:15:17;;;;;;;0.00;0.00;;;;;;;;;;5033373;28;20252;-78
2023/01/07 09:17:46;;;;;;;0.00;0.00;;;;;;;;;;5033069;28;20677;-78
2023/01/07 09:20:14;;;;;;;0.00;0.00;;;;;;;;;;5030913;28;20212;-79
2023/01/07 09:22:44;;;;;;;0.00;0.00;;;;;;;;;;5033480;28;20671;-78
2023/01/07 09:25:13;;;;;;;0.00;0.00;;;;;;;;;;5032916;28;20665;-79
2023/01/07 09:27:42;;;;;;;0.00;0.00;;;;;;;;;;5024594;28;20224;-78
2023/01/07 09:30:11;;;;;;;0.00;0.00;;;;;;;;;;5032782;28;20214;-78
2023/01/07 09:32:39;;;;;;;0.00;0.00;;;;;;;;;;5032893;28;20719;-78
2023/01/07 09:35:08;;;;;;;0.00;0.00;;;;;;;;;;5029519;28;20667;-79
2023/01/07 09:37:36;;;;;;;0.00;0.00;;;;;;;;;;5024783;28;20228;-79
2023/01/07 09:40:07;;;;;;;0.00;0.00;;;;;;;;;;5027356;28;20622;-78
2023/01/07 09:42:40;;;;;;;0.00;0.00;;;;;;;;;;5033303;28;20238;-78
2023/01/07 09:45:12;;;;;;;0.00;0.00;;;;;;;;;;5032835;28;20196;-78
2023/01/07 09:47:43;;;;;;;0.00;0.00;;;;;;;;;;5033696;28;20224;-79
2023/01/07 09:50:15;;;;;;;0.00;0.00;;;;;;;;;;5020078;28;20204;-79
2023/01/07 09:52:46;;;;;;;0.00;0.00;;;;;;;;;;5025676;28;20627;-79
2023/01/07 09:55:18;;;;;;;0.00;0.00;;;;;;;;;;5027353;28;20290;-79
2023/01/07 09:57:46;;;;;;;0.00;0.00;;;;;;;;;;5027335;28;20593;-79
2023/01/07 10:00:17;;;;;;;0.00;0.00;;;;;;;;;;5025682;28;20207;-79
2023/01/07 10:02:51;;;;;;;0.00;0.00;;;;;;;;;;5028474;28;20215;-79
2023/01/07 10:05:27;;;;;;;0.00;0.00;;;;;;;;;;5031037;28;20657;-79
2023/01/07 10:08:00;;;;;;;0.00;0.00;;;;;;;;;;5013204;28;20262;-79
2023/01/07 10:10:53;;;;;;;0.00;0.00;;;;;;;;;;5020241;28;20610;-79
2023/01/07 10:13:35;;;;;;;0.00;0.00;;;;;;;;;;5028288;28;20207;-78
2023/01/07 10:16:07;;;;;;;0.00;0.00;;;;;;;;;;5023806;28;20220;-79
2023/01/07 10:18:41;;;;;;;0.00;0.00;;;;;;;;;;5033779;28;20195;-79
2023/01/07 10:21:15;;;;;;;0.00;0.00;;;;;;;;;;5032908;28;20330;-79
2023/01/07 10:23:45;;;;;;;0.00;0.00;;;;;;;;;;5029334;28;20207;-78
2023/01/07 10:26:18;;;;;;;0.00;0.00;;;;;;;;;;5034509;28;20200;-79
2023/01/07 10:28:49;;;;;;;0.00;0.00;;;;;;;;;;5030943;28;20203;-78
2023/01/07 10:31:19;;;;;;;0.00;0.00;;;;;;;;;;5026248;28;20224;-77
2023/01/07 10:33:48;;;;;;;0.00;0.00;;;;;;;;;;5036921;28;20253;-78
2023/01/07 10:36:21;;;;;;;0.00;0.00;;;;;;;;;;5037408;28;20220;-77
2023/01/07 10:38:52;;;;;;;0.00;0.00;;;;;;;;;;5028239;28;20231;-77
2023/01/07 10:41:26;;;;;;;0.00;0.00;;;;;;;;;;5036715;28;20207;-76
2023/01/07 10:43:59;;;;;;;0.00;0.00;;;;;;;;;;5028748;28;20416;-77
2023/01/07 10:46:34;;;;;;;0.00;0.00;;;;;;;;;;5037101;28;20226;-77
2023/01/07 10:49:12;;;;;;;0.00;0.00;;;;;;;;;;5036645;28;20651;-77
2023/01/07 10:51:51;;;;;;;0.00;0.00;;;;;;;;;;5017551;28;20216;-77
2023/01/07 10:54:32;;;;;;;0.00;0.00;;;;;;;;;;5036421;28;20210;-77
2023/01/07 10:57:04;;;;;;;0.00;0.00;;;;;;;;;;5037041;28;20219;-77
2023/01/07 10:59:32;;;;;;;0.00;0.00;;;;;;;;;;5036807;28;20195;-78
2023/01/07 11:02:01;;;;;;;0.00;0.00;;;;;;;;;;5024334;28;20262;-77
2023/01/07 11:04:30;;;;;;;0.00;0.00;;;;;;;;;;5027330;28;20222;-77
2023/01/07 11:07:02;;;;;;;0.00;0.00;;;;;;;;;;5028069;28;20223;-78
2023/01/07 11:09:32;;;;;;;0.00;0.00;;;;;;;;;;5021901;28;20228;-77
2023/01/07 11:12:18;;;;;;;0.00;0.00;;;;;;;;;;5025636;28;20668;-77
2023/01/07 11:14:47;;;;;;;0.00;0.00;;;;;;;;;;5035669;28;20207;-79
2023/01/07 11:17:19;;;;;;;0.00;0.00;;;;;;;;;;5053597;28;20253;-81
2023/01/07 11:19:50;;;;;;;0.00;0.00;;;;;;;;;;5056599;28;20553;-78
2023/01/07 11:22:32;;;;;;;0.00;0.00;;;;;;;;;;5041626;28;20697;-79
2023/01/07 11:25:01;;;;;;;0.00;0.00;;;;;;;;;;5036763;28;20214;-79
2023/01/07 11:27:32;;;;;;;0.00;0.00;;;;;;;;;;5035208;28;20220;-79
2023/01/07 11:30:02;;;;;;;0.00;0.00;;;;;;;;;;5035690;28;20200;-79
2023/01/07 11:32:32;;;;;;;0.00;0.00;;;;;;;;;;5036652;28;20242;-79
2023/01/07 11:35:02;;;;;;;0.00;0.00;;;;;;;;;;5034939;28;20234;-77
2023/01/07 11:37:31;;;;;;;0.00;0.00;;;;;;;;;;5025103;28;20239;-77
2023/01/07 11:40:00;;;;;;;0.00;0.00;;;;;;;;;;5036260;28;20200;-77
2023/01/07 11:42:39;;;;;;;0.00;0.00;;;;;;;;;;5037733;28;20618;-77
2023/01/07 11:45:15;;;;;;;0.00;0.00;;;;;;;;;;5036164;28;20214;-77
2023/01/07 11:47:47;;;;;;;0.00;0.00;;;;;;;;;;5036246;28;20581;-79
2023/01/07 11:50:26;;;;;;;0.00;0.00;;;;;;;;;;5034954;28;20207;-79
2023/01/07 11:52:59;;;;;;;0.00;0.00;;;;;;;;;;5035124;28;20555;-80
2023/01/07 11:55:28;;;;;;;0.00;0.00;;;;;;;;;;5035751;28;20281;-81
2023/01/07 11:57:57;;;;;;;0.00;0.00;;;;;;;;;;5031060;28;20252;-80
2023/01/07 12:00:47;;;;;;;0.00;0.00;;;;;;;;;;5035294;28;20223;-81
2023/01/07 12:03:15;;;;;;;0.00;0.00;;;;;;;;;;5017305;28;20648;-81
2023/01/07 12:05:44;;;;;;;0.00;0.00;;;;;;;;;;5026676;28;20669;-81
2023/01/07 12:08:20;;;;;;;0.00;0.00;;;;;;;;;;5034453;28;20216;-80
2023/01/07 12:10:55;;;;;;;0.00;0.00;;;;;;;;;;5032406;28;20211;-82
2023/01/07 12:13:26;;;;;;;0.00;0.00;;;;;;;;;;5034893;28;20187;-82
2023/01/07 12:15:57;;;;;;;0.00;0.00;;;;;;;;;;5035148;28;20236;-81
2023/01/07 12:18:36;;;;;;;0.00;0.00;;;;;;;;;;5035371;28;20259;-81
2023/01/07 12:21:29;;;;;;;0.00;0.00;;;;;;;;;;5035021;28;20219;-82
2023/01/07 12:24:06;;;;;;;0.00;0.00;;;;;;;;;;5035877;28;20188;-81
2023/01/07 12:26:40;;;;;;;0.00;0.00;;;;;;;;;;5035610;28;20696;-80
2023/01/07 12:29:15;;;;;;;0.00;0.00;;;;;;;;;;5035018;28;20184;-81
2023/01/07 12:31:54;;;;;;;0.00;0.00;;;;;;;;;;5034703;28;20251;-81
2023/01/07 12:34:31;;;;;;;0.00;0.00;;;;;;;;;;5034663;28;20208;-81
2023/01/07 12:37:02;;;;;;;0.00;0.00;;;;;;;;;;5034835;28;20227;-80
2023/01/07 12:39:33;;;;;;;0.00;0.00;;;;;;;;;;5033782;28;20559;-81
2023/01/07 12:42:04;;;;;;;0.00;0.00;;;;;;;;;;5034567;28;20227;-81
2023/01/07 12:44:35;;;;;;;0.00;0.00;;;;;;;;;;5034343;28;20222;-80
2023/01/07 12:47:08;;;;;;;0.00;0.00;;;;;;;;;;5034387;28;20235;-80
2023/01/07 12:49:59;;;;;;;0.00;0.00;;;;;;;;;;5020289;28;20582;-80
2023/01/07 12:52:32;;;;;;;0.00;0.00;;;;;;;;;;5034482;28;20203;-80
2023/01/07 12:55:02;;;;;;;0.00;0.00;;;;;;;;;;5020820;28;20274;-80
2023/01/07 12:57:34;;;;;;;0.00;0.00;;;;;;;;;;5014422;28;20586;-80
2023/01/07 13:00:07;;;;;;;0.00;0.00;;;;;;;;;;5014323;28;20188;-80
2023/01/07 13:02:43;;;;;;;0.00;0.00;;;;;;;;;;5014519;28;20595;-80
2023/01/07 13:05:15;;;;;;;0.00;0.00;;;;;;;;;;5015315;28;20208;-81
2023/01/07 13:07:46;;;;;;;0.00;0.00;;;;;;;;;;5034020;28;20220;-79
2023/01/07 13:10:17;;;;;;;0.00;0.00;;;;;;;;;;5033844;28;20211;-80
2023/01/07 13:12:46;;;;;;;0.00;0.00;;;;;;;;;;5034201;28;20738;-81
2023/01/07 13:15:20;;;;;;;0.00;0.00;;;;;;;;;;5034069;28;20291;-81
2023/01/07 13:17:52;;;;;;;0.00;0.00;;;;;;;;;;5033886;28;20692;-81
2023/01/07 13:20:38;;;;;;;0.00;0.00;;;;;;;;;;5030839;28;20227;-80
2023/01/07 13:23:08;;;;;;;0.00;0.00;;;;;;;;;;5014617;28;20303;-80
2023/01/07 13:25:46;;;;;;;0.00;0.00;;;;;;;;;;5014053;28;20193;-81
2023/01/07 13:28:28;;;;;;;0.00;0.00;;;;;;;;;;5030054;28;20684;-80
2023/01/07 13:31:08;;;;;;;0.00;0.00;;;;;;;;;;5023400;28;20200;-80
2023/01/07 13:33:42;;;;;;;0.00;0.00;;;;;;;;;;5014071;28;20227;-80
2023/01/07 13:36:15;;;;;;;0.00;0.00;;;;;;;;;;5013668;28;20243;-79
2023/01/07 13:39:08;;;;;;;0.00;0.00;;;;;;;;;;5014006;28;20208;-80
2023/01/07 13:41:42;;;;;;;0.00;0.00;;;;;;;;;;5028743;28;20241;-80
2023/01/07 13:44:21;;;;;;;0.00;0.00;;;;;;;;;;5033421;28;20190;-80
2023/01/07 13:46:50;;;;;;;0.00;0.00;;;;;;;;;;5033334;28;20259;-80
2023/01/07 13:49:24;;;;;;;0.00;0.00;;;;;;;;;;5033592;28;20210;-80
2023/01/07 13:51:53;;;;;;;0.00;0.00;;;;;;;;;;5033385;28;20261;-80
2023/01/07 13:54:49;;;;;;;0.00;0.00;;;;;;;;;;5033111;28;20253;-80
2023/01/07 13:57:32;;;;;;;0.00;0.00;;;;;;;;;;5031050;28;20240;-80
2023/01/07 14:00:02;;;;;;;0.00;0.00;;;;;;;;;;5018214;28;20215;-80
2023/01/07 14:02:51;;;;;;;0.00;0.00;;;;;;;;;;5013518;28;20236;-80
2023/01/07 14:05:25;;;;;;;0.00;0.00;;;;;;;;;;5013771;28;20200;-80
2023/01/07 14:07:55;;;;;;;0.00;0.00;;;;;;;;;;5013192;28;20243;-80
2023/01/07 14:10:26;;;;;;;0.00;0.00;;;;;;;;;;5031133;28;20582;-80
2023/01/07 14:13:12;;;;;;;0.00;0.00;;;;;;;;;;5025481;28;20641;-81
2023/01/07 14:15:55;;;;;;;0.00;0.00;;;;;;;;;;5031884;28;20215;-80
2023/01/07 14:18:41;;;;;;;0.00;0.00;;;;;;;;;;5033009;28;20310;-81
2023/01/07 14:21:17;;;;;;;0.00;0.00;;;;;;;;;;5033060;28;20235;-80
2023/01/07 14:23:51;;;;;;;0.00;0.00;;;;;;;;;;5024315;28;20200;-80
2023/01/07 14:26:23;;;;;;;0.00;0.00;;;;;;;;;;5027914;28;20192;-79
2023/01/07 14:29:11;;;;;;;0.00;0.00;;;;;;;;;;5030263;28;20233;-80
2023/01/07 14:31:40;;;;;;;0.00;0.00;;;;;;;;;;5032686;28;20212;-80
2023/01/07 14:34:16;;;;;;;0.00;0.00;;;;;;;;;;5013493;28;20228;-80
2023/01/07 14:37:15;;;;;;;0.00;0.00;;;;;;;;;;5017850;28;20269;-81
2023/01/07 14:39:45;;;;;;;0.00;0.00;;;;;;;;;;4991466;28;20333;-80
2023/01/07 14:42:29;;;;;;;0.00;0.00;;;;;;;;;;5024200;28;20208;-80
2023/01/07 14:44:57;;;;;;;0.00;0.00;;;;;;;;;;5031268;28;20211;-80
2023/01/07 14:47:44;;;;;;;0.00;0.00;;;;;;;;;;5031938;28;20219;-81
2023/01/07 14:50:19;;;;;;;0.00;0.00;;;;;;;;;;5031441;28;20204;-80
2023/01/07 14:53:07;;;;;;;0.00;0.00;;;;;;;;;;5032225;28;20278;-81
2023/01/07 14:55:42;;;;;;;0.00;0.00;;;;;;;;;;5031736;28;20211;-79
2023/01/07 14:58:21;;;;;;;0.00;0.00;;;;;;;;;;5032141;28;20672;-80
2023/01/07 15:01:00;;;;;;;0.00;0.00;;;;;;;;;;5031635;28;20246;-81
2023/01/07 15:03:44;;;;;;;0.00;0.00;;;;;;;;;;5035763;28;20211;-80
2023/01/07 15:06:18;;;;;;;0.00;0.00;;;;;;;;;;5035378;28;20227;-81
2023/01/07 15:17:14;;;;;;;0.00;0.00;;;;;;;;;;5034843;28;20223;-80
2023/01/07 15:19:44;;;;;;;0.00;0.00;;;;;;;;;;5034896;28;20277;-79
2023/01/07 15:22:27;;;;;;;0.00;0.00;;;;;;;;;;5034937;28;20207;-79